createdAt,value
2023-02-25T00:01:07.263Z,95978.13
2023-02-25T00:03:37.636Z,95976.59
2023-02-25T00:06:08.457Z,95978.88
2023-02-25T00:08:39.110Z,95980.97
2023-02-25T00:11:10.514Z,95985.78
2023-02-25T00:13:44.843Z,95990.88
2023-02-25T00:16:16.396Z,95976.66
2023-02-25T00:18:47.191Z,95986.72
2023-02-25T00:21:18.702Z,95987.59
2023-02-25T00:23:50.621Z,95994.75
2023-02-25T00:26:22.054Z,95994.19
2023-02-25T00:28:54.939Z,95992.47
2023-02-25T00:31:27.255Z,95985.88
2023-02-25T00:33:57.548Z,95996.63
2023-02-25T00:36:29.454Z,95993.56
2023-02-25T00:39:00.439Z,96000.00
2023-02-25T00:41:31.914Z,95991.25
2023-02-25T00:44:06.149Z,95989.66
2023-02-25T00:46:36.735Z,95981.47
2023-02-25T00:49:06.853Z,95993.28
2023-02-25T00:51:37.226Z,95980.50
2023-02-25T00:54:07.702Z,95987.19
2023-02-25T00:56:38.072Z,95983.63
2023-02-25T00:59:10.968Z,95981.47
2023-02-25T01:01:41.235Z,95982.03
2023-02-25T01:04:11.707Z,95979.69
2023-02-25T01:06:41.946Z,95977.97
2023-02-25T01:09:14.189Z,95972.88
2023-02-25T01:11:47.513Z,95965.69
2023-02-25T01:14:23.668Z,95963.69
2023-02-25T01:16:56.297Z,95967.56
2023-02-25T01:19:28.466Z,95967.94
2023-02-25T01:22:00.276Z,95971.94
2023-02-25T01:24:31.688Z,95971.63
2023-02-25T01:27:03.364Z,95973.59
2023-02-25T01:29:39.445Z,95975.13
2023-02-25T01:32:12.168Z,95980.81
2023-02-25T01:34:42.957Z,95975.53
2023-02-25T01:37:13.326Z,95978.94
2023-02-25T01:39:43.547Z,95980.91
2023-02-25T01:42:16.936Z,95984.00
2023-02-25T01:45:25.571Z,95983.34
2023-02-25T01:48:01.524Z,95992.00
2023-02-25T01:50:37.156Z,95984.16
2023-02-25T01:53:08.953Z,95986.06
2023-02-25T01:55:39.798Z,95982.38
2023-02-25T01:58:11.073Z,95991.53
2023-02-25T02:00:42.120Z,95982.59
2023-02-25T02:03:18.734Z,95990.53
2023-02-25T02:05:57.277Z,95987.78
2023-02-25T02:08:27.831Z,95968.91
2023-02-25T02:10:59.238Z,95971.81
2023-02-25T02:13:29.436Z,95972.84
2023-02-25T02:16:12.382Z,95977.94
2023-02-25T02:18:49.873Z,95966.72
2023-02-25T02:21:38.082Z,95972.84
2023-02-25T02:24:32.652Z,95961.00
2023-02-25T02:27:05.398Z,95966.19
2023-02-25T02:30:01.580Z,95969.28
2023-02-25T02:32:39.925Z,95966.44
2023-02-25T02:35:18.624Z,95961.09
2023-02-25T02:37:57.633Z,95962.66
2023-02-25T02:40:41.246Z,95958.16
2023-02-25T02:43:22.539Z,95962.22
2023-02-25T02:45:57.364Z,95956.72
2023-02-25T02:48:34.741Z,95955.69
2023-02-25T02:51:07.352Z,95956.03
2023-02-25T02:53:40.364Z,95953.38
2023-02-25T02:56:12.711Z,95959.50
2023-02-25T02:58:46.311Z,95961.28
2023-02-25T03:01:19.559Z,95956.38
2023-02-25T03:03:59.937Z,95960.34
2023-02-25T03:06:34.806Z,95956.91
2023-02-25T03:09:09.214Z,95962.72
2023-02-25T03:11:39.286Z,95979.59
2023-02-25T03:14:10.348Z,95970.41
2023-02-25T03:16:42.621Z,95965.88
2023-02-25T03:19:19.253Z,95973.03
2023-02-25T03:21:52.530Z,95974.72
2023-02-25T03:24:28.563Z,95962.22
2023-02-25T03:26:58.970Z,95968.44
2023-02-25T03:29:31.440Z,95973.75
2023-02-25T03:32:06.437Z,95963.94
2023-02-25T03:34:41.708Z,95968.50
2023-02-25T03:37:17.632Z,95968.78
2023-02-25T03:39:51.956Z,95974.25
2023-02-25T03:42:24.638Z,95972.88
2023-02-25T03:44:56.799Z,95974.19
2023-02-25T03:47:28.881Z,95982.97
2023-02-25T03:50:04.918Z,95974.84
2023-02-25T03:52:35.406Z,95985.94
2023-02-25T03:55:12.794Z,95988.78
2023-02-25T03:57:44.892Z,95988.22
2023-02-25T04:00:20.085Z,95983.81
2023-02-25T04:02:50.655Z,95985.78
2023-02-25T04:05:25.145Z,95991.81
2023-02-25T04:07:55.280Z,95993.56
2023-02-25T04:10:25.696Z,95995.66
2023-02-25T04:12:55.982Z,96006.06
2023-02-25T04:15:29.056Z,96003.81
2023-02-25T04:17:59.116Z,96004.03
2023-02-25T04:20:33.086Z,96011.53
2023-02-25T04:23:03.796Z,96011.38
2023-02-25T04:25:33.922Z,96009.28
2023-02-25T04:28:03.988Z,96019.28
2023-02-25T04:30:34.559Z,96018.06
2023-02-25T04:33:04.757Z,96009.22
2023-02-25T04:35:37.414Z,96009.22
2023-02-25T04:38:09.241Z,96013.50
2023-02-25T04:40:40.129Z,96007.91
2023-02-25T04:43:10.231Z,96019.16
2023-02-25T04:45:40.281Z,96016.41
2023-02-25T04:48:10.390Z,96015.63
2023-02-25T04:50:43.041Z,96019.34
2023-02-25T04:53:13.141Z,96004.19
2023-02-25T04:55:43.203Z,96008.78
2023-02-25T04:58:13.397Z,96022.31
2023-02-25T05:00:49.383Z,96015.84
2023-02-25T05:03:19.459Z,96021.56
2023-02-25T05:05:52.162Z,96019.38
2023-02-25T05:08:22.817Z,96013.13
2023-02-25T05:10:53.438Z,96012.25
2023-02-25T05:13:23.956Z,96013.13
2023-02-25T05:15:54.634Z,96021.56
2023-02-25T05:18:24.728Z,96020.06
2023-02-25T05:20:57.405Z,96026.16
2023-02-25T05:23:27.610Z,96025.19
2023-02-25T05:25:58.907Z,96045.53
2023-02-25T05:28:29.159Z,96045.22
2023-02-25T05:30:59.368Z,96052.28
2023-02-25T05:33:29.977Z,96053.50
2023-02-25T05:36:02.701Z,96055.78
2023-02-25T05:38:32.748Z,96058.84
2023-02-25T05:41:03.235Z,96069.28
2023-02-25T05:43:33.267Z,96069.94
2023-02-25T05:46:05.016Z,96076.16
2023-02-25T05:48:35.703Z,96077.69
2023-02-25T05:51:09.627Z,96081.34
2023-02-25T05:53:40.700Z,96094.16
2023-02-25T05:56:13.612Z,96083.97
2023-02-25T05:58:43.855Z,96087.94
2023-02-25T06:01:16.109Z,96099.50
2023-02-25T06:03:47.126Z,96102.81
2023-02-25T06:06:23.659Z,96104.97
2023-02-25T06:08:54.070Z,96105.34
2023-02-25T06:11:27.600Z,96109.75
2023-02-25T06:13:58.621Z,96109.28
2023-02-25T06:16:32.317Z,96117.31
2023-02-25T06:19:03.784Z,96109.72
2023-02-25T06:21:37.452Z,96116.84
2023-02-25T06:24:08.303Z,96123.84
2023-02-25T06:26:41.980Z,96127.00
2023-02-25T06:29:12.504Z,96135.69
2023-02-25T06:31:43.463Z,96130.97
2023-02-25T06:34:13.712Z,96138.28
2023-02-25T06:36:46.682Z,96139.72
2023-02-25T06:39:16.817Z,96139.16
2023-02-25T06:41:47.033Z,96139.72
2023-02-25T06:44:17.137Z,96142.00
2023-02-25T06:46:47.306Z,96140.50
2023-02-25T06:49:17.357Z,96159.69
2023-02-25T06:51:50.001Z,96163.34
2023-02-25T06:54:20.606Z,96162.44
2023-02-25T06:56:50.688Z,96174.16
2023-02-25T06:59:20.742Z,96167.59
2023-02-25T07:01:50.859Z,96160.94
2023-02-25T07:04:22.075Z,96175.50
2023-02-25T07:06:54.838Z,96171.72
2023-02-25T07:09:24.855Z,96172.63
2023-02-25T07:11:55.177Z,96174.16
2023-02-25T07:14:25.213Z,96176.84
2023-02-25T07:16:55.784Z,96182.78
2023-02-25T07:19:25.855Z,96186.44
2023-02-25T07:21:58.554Z,96184.75
2023-02-25T07:24:28.608Z,96182.31
2023-02-25T07:26:58.748Z,96176.84
2023-02-25T07:29:29.093Z,96184.75
2023-02-25T07:32:00.206Z,96182.94
2023-02-25T07:34:30.498Z,96185.97
2023-02-25T07:37:03.157Z,96187.50
2023-02-25T07:39:33.253Z,96189.78
2023-02-25T07:42:03.418Z,96202.69
2023-02-25T07:44:34.106Z,96200.41
2023-02-25T07:47:04.238Z,96201.66
2023-02-25T07:49:34.274Z,96213.06
2023-02-25T07:52:07.637Z,96212.63
2023-02-25T07:54:37.765Z,96214.00
2023-02-25T07:57:07.849Z,96215.53
2023-02-25T07:59:37.924Z,96212.16
2023-02-25T08:02:10.409Z,96221.75
2023-02-25T08:04:40.938Z,96222.66
2023-02-25T08:07:13.795Z,96230.09
2023-02-25T08:09:44.669Z,96227.34
2023-02-25T08:12:14.798Z,96230.75
2023-02-25T08:14:45.917Z,96234.69
2023-02-25T08:17:16.507Z,96229.53
2023-02-25T08:19:46.539Z,96235.13
2023-02-25T08:22:19.263Z,96240.59
2023-02-25T08:24:49.345Z,96240.28
2023-02-25T08:27:19.861Z,96245.31
2023-02-25T08:29:49.969Z,96248.97
2023-02-25T08:32:20.227Z,96246.81
2023-02-25T08:34:50.772Z,96251.53
2023-02-25T08:37:25.771Z,96253.50
2023-02-25T08:39:58.238Z,96255.63
2023-02-25T08:42:28.313Z,96253.34
2023-02-25T08:44:58.347Z,96256.22
2023-02-25T08:47:29.535Z,96254.56
2023-02-25T08:50:00.775Z,96258.06
2023-02-25T08:52:33.901Z,96266.56
2023-02-25T08:55:04.391Z,96262.44
2023-02-25T08:57:34.611Z,96262.00
2023-02-25T09:00:06.286Z,96263.78
2023-02-25T09:02:36.734Z,96267.16
2023-02-25T09:05:07.114Z,96276.56
2023-02-25T09:07:39.945Z,96279.25
2023-02-25T09:10:12.983Z,96289.47
2023-02-25T09:12:44.370Z,96288.84
2023-02-25T09:15:15.108Z,96284.31
2023-02-25T09:17:45.536Z,96288.84
2023-02-25T09:20:18.157Z,96291.44
2023-02-25T09:22:50.928Z,96299.63
2023-02-25T09:25:21.221Z,96296.88
2023-02-25T09:27:51.277Z,96301.28
2023-02-25T09:30:21.514Z,96301.72
2023-02-25T09:32:52.019Z,96308.44
2023-02-25T09:35:22.226Z,96310.72
2023-02-25T09:37:54.869Z,96315.41
2023-02-25T09:40:25.584Z,96297.94
2023-02-25T09:43:08.126Z,96295.06
2023-02-25T09:45:38.827Z,96317.84
2023-02-25T09:48:18.807Z,96315.56
2023-02-25T09:50:52.267Z,96324.25
2023-02-25T09:53:29.071Z,96340.19
2023-02-25T09:55:59.363Z,96333.06
2023-02-25T09:58:34.944Z,96329.69
2023-02-25T10:01:09.946Z,96335.16
2023-02-25T10:03:50.919Z,96348.56
2023-02-25T10:06:25.251Z,96346.09
2023-02-25T10:09:07.002Z,96347.16
2023-02-25T10:11:46.608Z,96348.56
2023-02-25T10:14:28.552Z,96349.31
2023-02-25T10:17:05.861Z,96364.03
2023-02-25T10:19:45.754Z,96373.16
2023-02-25T10:22:45.054Z,96365.72
2023-02-25T10:25:22.078Z,96369.53
2023-02-25T10:27:55.797Z,96363.56
2023-02-25T10:30:28.271Z,96371.31
2023-02-25T10:32:59.270Z,96381.38
2023-02-25T10:35:31.616Z,96374.97
2023-02-25T10:38:02.171Z,96377.09
2023-02-25T10:40:35.003Z,96383.31
2023-02-25T10:43:18.000Z,96386.81
2023-02-25T10:45:49.460Z,96388.81
2023-02-25T10:48:24.041Z,96385.78
2023-02-25T10:51:12.357Z,96396.41
2023-02-25T10:53:42.775Z,96392.59
2023-02-25T10:56:15.563Z,96397.75
2023-02-25T10:58:48.462Z,96403.53
2023-02-25T11:01:21.549Z,96404.59
2023-02-25T11:03:59.125Z,96410.22
2023-02-25T11:06:32.494Z,96415.97
2023-02-25T11:09:03.670Z,96415.34
2023-02-25T11:11:38.899Z,96409.00
2023-02-25T11:14:13.136Z,96409.31
2023-02-25T11:16:44.723Z,96413.53
2023-02-25T11:19:18.354Z,96411.44
2023-02-25T11:21:49.467Z,96422.66
2023-02-25T11:24:21.466Z,96414.16
2023-02-25T11:26:55.323Z,96419.63
2023-02-25T11:29:29.282Z,96419.03
2023-02-25T11:32:04.662Z,96417.06
2023-02-25T11:34:35.423Z,96422.50
2023-02-25T11:37:26.700Z,96415.81
2023-02-25T11:39:59.345Z,96429.94
2023-02-25T11:42:33.013Z,96425.22
2023-02-25T11:45:04.476Z,96432.66
2023-02-25T11:47:36.034Z,96437.22
2023-02-25T11:50:24.226Z,96434.78
2023-02-25T11:53:02.861Z,96434.78
2023-02-25T11:55:46.996Z,96436.94
2023-02-25T11:58:27.784Z,96448.47
2023-02-25T12:01:02.347Z,96445.25
2023-02-25T12:03:50.079Z,96446.00
2023-02-25T12:06:29.498Z,96452.13
2023-02-25T12:09:37.198Z,96448.78
2023-02-25T12:12:41.602Z,96451.22
2023-02-25T12:15:44.981Z,96457.31
2023-02-25T12:18:52.121Z,96457.00
2023-02-25T12:21:51.675Z,96459.13
2023-02-25T12:24:39.827Z,96458.97
2023-02-25T12:27:52.595Z,96455.03
2023-02-25T12:30:47.742Z,96463.69
2023-02-25T12:33:26.621Z,96458.81
2023-02-25T12:36:08.697Z,96463.22
2023-02-25T12:39:10.827Z,96468.53
2023-02-25T12:41:45.999Z,96462.13
2023-02-25T12:44:49.984Z,96461.25
2023-02-25T12:47:39.359Z,96467.31
2023-02-25T12:50:45.590Z,96470.81
2023-02-25T12:53:34.058Z,96468.81
2023-02-25T12:56:42.991Z,96471.97
2023-02-25T12:59:36.905Z,96468.75
2023-02-25T13:02:39.721Z,96489.69
2023-02-25T13:05:26.139Z,96492.28
2023-02-25T13:08:10.113Z,96488.78
2023-02-25T13:10:52.119Z,96490.38
2023-02-25T13:13:56.932Z,96491.78
2023-02-25T13:16:35.641Z,96487.28
2023-02-25T13:19:22.109Z,96488.19
2023-02-25T13:22:04.612Z,96493.50
2023-02-25T13:24:47.421Z,96490.56
2023-02-25T13:27:36.606Z,96488.38
2023-02-25T13:30:27.583Z,96491.56
2023-02-25T13:33:20.011Z,96489.78
2023-02-25T13:35:57.591Z,96481.44
2023-02-25T13:38:36.832Z,96486.81
2023-02-25T13:41:22.305Z,96488.25
2023-02-25T13:44:15.166Z,96498.34
2023-02-25T13:47:03.041Z,96491.78
2023-02-25T13:50:04.244Z,96493.34
2023-02-25T13:52:39.219Z,96496.25
2023-02-25T13:55:30.386Z,96502.63
2023-02-25T13:58:25.304Z,96496.69
2023-02-25T14:01:07.663Z,96503.84
2023-02-25T14:04:08.484Z,96503.53
2023-02-25T14:06:47.487Z,96510.81
2023-02-25T14:09:29.847Z,96513.53
2023-02-25T14:12:13.020Z,96516.22
2023-02-25T14:15:14.468Z,96518.09
2023-02-25T14:18:00.774Z,96509.28
2023-02-25T14:20:41.851Z,96523.47
2023-02-25T14:23:16.866Z,96522.97
2023-02-25T14:25:58.206Z,96529.63
2023-02-25T14:28:34.653Z,96539.19
2023-02-25T14:31:14.360Z,96546.59
2023-02-25T14:34:11.877Z,96541.44
2023-02-25T14:37:05.096Z,96545.09
2023-02-25T14:39:54.777Z,96540.25
2023-02-25T14:42:36.639Z,96549.94
2023-02-25T14:45:18.433Z,96557.47
2023-02-25T14:47:53.169Z,96556.25
2023-02-25T14:50:30.788Z,96567.50
2023-02-25T14:53:11.471Z,96553.53
2023-02-25T14:56:11.383Z,96555.41
2023-02-25T14:59:04.139Z,96563.38
2023-02-25T15:01:47.234Z,96575.31
2023-02-25T15:04:50.017Z,96564.50
2023-02-25T15:07:44.742Z,96572.47
2023-02-25T15:10:21.676Z,96573.56
2023-02-25T15:13:03.629Z,96576.50
2023-02-25T15:15:54.380Z,96583.66
2023-02-25T15:18:42.968Z,96580.34
2023-02-25T15:21:46.816Z,96595.06
2023-02-25T15:24:43.508Z,96598.56
2023-02-25T15:27:45.889Z,96596.41
2023-02-25T15:30:18.164Z,96597.16
2023-02-25T15:33:09.443Z,96604.63
2023-02-25T15:35:56.131Z,96594.13
2023-02-25T15:38:42.632Z,96605.97
2023-02-25T15:41:46.430Z,96612.63
2023-02-25T15:44:37.371Z,96612.28
2023-02-25T15:47:37.739Z,96613.81
2023-02-25T15:50:09.963Z,96620.41
2023-02-25T15:52:55.858Z,96622.63
2023-02-25T15:55:44.053Z,96624.13
2023-02-25T15:58:47.725Z,96636.19
2023-02-25T16:01:42.850Z,96650.84
2023-02-25T16:04:47.904Z,96663.59
2023-02-25T16:07:19.676Z,96674.28
2023-02-25T16:09:54.006Z,96687.25
2023-02-25T16:12:24.664Z,96691.31
2023-02-25T16:14:59.870Z,96695.72
2023-02-25T16:17:33.889Z,96700.94
2023-02-25T16:20:17.111Z,96703.03
2023-02-25T16:22:49.027Z,96701.31
2023-02-25T16:25:22.298Z,96713.97
2023-02-25T16:27:58.228Z,96710.28
2023-02-25T16:30:40.294Z,96717.69
2023-02-25T16:33:20.609Z,96724.47
2023-02-25T16:36:02.641Z,96726.66
2023-02-25T16:38:44.871Z,96723.50
2023-02-25T16:41:15.345Z,96744.69
2023-02-25T16:43:46.615Z,96737.69
2023-02-25T16:46:23.370Z,96743.28
2023-02-25T16:48:56.226Z,96744.00
2023-02-25T16:51:30.190Z,96745.66
2023-02-25T16:54:02.335Z,96751.13
2023-02-25T16:56:33.575Z,96758.66
2023-02-25T16:59:09.003Z,96765.97
2023-02-25T17:01:42.138Z,96765.97
2023-02-25T17:04:18.001Z,96769.13
2023-02-25T17:06:48.578Z,96768.69
2023-02-25T17:09:26.492Z,96781.13
2023-02-25T17:11:57.988Z,96772.41
2023-02-25T17:14:28.330Z,96782.22
2023-02-25T17:17:01.577Z,96791.84
2023-02-25T17:19:32.024Z,96789.88
2023-02-25T17:22:04.495Z,96791.84
2023-02-25T17:24:36.064Z,96802.19
2023-02-25T17:27:06.200Z,96803.94
2023-02-25T17:29:37.936Z,96812.69
2023-02-25T17:32:23.687Z,96816.28
2023-02-25T17:34:56.581Z,96811.59
2023-02-25T17:37:29.022Z,96814.22
2023-02-25T17:39:59.496Z,96825.44
2023-02-25T17:42:34.409Z,96816.69
2023-02-25T17:45:07.421Z,96822.63
2023-02-25T17:47:40.194Z,96824.88
2023-02-25T17:50:23.152Z,96824.03
2023-02-25T17:52:53.351Z,96824.25
2023-02-25T17:55:26.516Z,96826.22
2023-02-25T17:58:00.445Z,96834.75
2023-02-25T18:00:32.617Z,96846.31
2023-02-25T18:03:22.484Z,96838.97
2023-02-25T18:05:54.230Z,96846.94
2023-02-25T18:08:25.976Z,96850.44
2023-02-25T18:10:58.257Z,96852.41
2023-02-25T18:13:33.898Z,96854.69
2023-02-25T18:16:33.770Z,96863.53
2023-02-25T18:19:12.048Z,96862.78
2023-02-25T18:21:45.381Z,96858.31
2023-02-25T18:24:26.680Z,96863.44
2023-02-25T18:27:11.458Z,96860.28
2023-02-25T18:29:41.495Z,96864.63
2023-02-25T18:32:12.843Z,96868.13
2023-02-25T18:34:45.837Z,96867.78
2023-02-25T18:37:18.215Z,96878.63
2023-02-25T18:39:51.415Z,96878.91
2023-02-25T18:42:21.882Z,96881.34
2023-02-25T18:44:52.238Z,96886.03
2023-02-25T18:47:22.387Z,96885.81
2023-02-25T18:49:55.102Z,96886.00
2023-02-25T18:52:26.715Z,96887.84
2023-02-25T18:54:56.813Z,96899.28
2023-02-25T18:57:29.163Z,96909.59
2023-02-25T18:59:59.257Z,96909.72
2023-02-25T19:02:32.711Z,96916.19
2023-02-25T19:05:06.958Z,96914.00
2023-02-25T19:07:37.932Z,96918.69
2023-02-25T19:10:09.862Z,96915.72
2023-02-25T19:12:40.236Z,96929.34
2023-02-25T19:15:15.037Z,96941.78
2023-02-25T19:17:46.316Z,96930.03
2023-02-25T19:20:20.941Z,96942.13
2023-02-25T19:22:52.654Z,96949.72
2023-02-25T19:25:25.727Z,96953.88
2023-02-25T19:27:56.743Z,96950.84
2023-02-25T19:30:29.303Z,96960.78
2023-02-25T19:33:03.509Z,96954.31
2023-02-25T19:35:38.867Z,96962.47
2023-02-25T19:38:10.318Z,96965.31
2023-02-25T19:40:40.546Z,96965.66
2023-02-25T19:43:10.631Z,96970.59
2023-02-25T19:45:40.675Z,96980.19
2023-02-25T19:48:11.467Z,96984.13
2023-02-25T19:50:45.337Z,96984.88
2023-02-25T19:53:15.424Z,96985.41
2023-02-25T19:55:46.176Z,96992.38
2023-02-25T19:58:16.387Z,96990.84
2023-02-25T20:00:46.998Z,96991.38
2023-02-25T20:03:17.773Z,96994.16
2023-02-25T20:05:50.472Z,96997.66
2023-02-25T20:08:20.819Z,97008.56
2023-02-25T20:10:50.899Z,97009.34
2023-02-25T20:13:21.414Z,97010.88
2023-02-25T20:15:51.507Z,97021.88
2023-02-25T20:18:21.582Z,97017.44
2023-02-25T20:20:54.255Z,97016.25
2023-02-25T20:23:24.327Z,97020.59
2023-02-25T20:25:54.363Z,97027.22
2023-02-25T20:28:24.613Z,97029.97
2023-02-25T20:30:54.713Z,97030.38
2023-02-25T20:33:25.785Z,97040.84
2023-02-25T20:35:58.960Z,97043.84
2023-02-25T20:38:33.766Z,97048.09
2023-02-25T20:41:04.120Z,97042.66
2023-02-25T20:43:34.382Z,97051.59
2023-02-25T20:46:04.838Z,97056.13
2023-02-25T20:48:35.977Z,97059.16
2023-02-25T20:51:09.725Z,97060.72
2023-02-25T20:53:41.023Z,97067.03
2023-02-25T20:56:13.545Z,97059.94
2023-02-25T20:58:43.659Z,97074.84
2023-02-25T21:01:13.783Z,97067.44
2023-02-25T21:03:43.903Z,97071.25
2023-02-25T21:06:17.910Z,97071.25
2023-02-25T21:08:48.367Z,97067.69
2023-02-25T21:11:18.447Z,97077.47
2023-02-25T21:13:49.343Z,97074.34
2023-02-25T21:16:19.628Z,97072.63
2023-02-25T21:18:50.756Z,97076.22
2023-02-25T21:21:26.901Z,97078.09
2023-02-25T21:23:57.027Z,97076.53
2023-02-25T21:26:27.080Z,97080.19
2023-02-25T21:28:57.132Z,97076.28
2023-02-25T21:31:27.294Z,97079.44
2023-02-25T21:33:57.645Z,97087.88
2023-02-25T21:36:30.383Z,97089.16
2023-02-25T21:39:00.462Z,97084.63
2023-02-25T21:41:30.575Z,97091.72
2023-02-25T21:44:00.611Z,97093.25
2023-02-25T21:46:31.538Z,97085.91
2023-02-25T21:49:01.677Z,97105.34
2023-02-25T21:51:34.390Z,97097.66
2023-02-25T21:54:05.254Z,97097.56
2023-02-25T21:56:35.866Z,97101.84
2023-02-25T21:59:08.219Z,97099.19
2023-02-25T22:01:40.603Z,97103.88
2023-02-25T22:04:11.430Z,97103.44
2023-02-25T22:06:47.181Z,97108.56
2023-02-25T22:09:18.126Z,97110.09
2023-02-25T22:11:48.409Z,97111.72
2023-02-25T22:14:18.469Z,97114.34
2023-02-25T22:16:48.631Z,97118.63
2023-02-25T22:19:18.763Z,97120.03
2023-02-25T22:21:51.463Z,97121.94
2023-02-25T22:24:21.508Z,97121.56
2023-02-25T22:26:52.216Z,97120.41
2023-02-25T22:29:22.305Z,97123.88
2023-02-25T22:31:52.585Z,97118.44
2023-02-25T22:34:22.683Z,97125.84
2023-02-25T22:36:55.418Z,97125.47
2023-02-25T22:39:25.540Z,97117.81
2023-02-25T22:41:55.706Z,97119.78
2023-02-25T22:44:25.828Z,97127.13
2023-02-25T22:46:56.042Z,97134.66
2023-02-25T22:49:26.448Z,97138.84
2023-02-25T22:51:59.136Z,97143.16
2023-02-25T22:54:29.230Z,97148.63
2023-02-25T22:56:59.257Z,97155.19
2023-02-25T22:59:29.523Z,97153.91
2023-02-25T23:01:59.683Z,97160.22
2023-02-25T23:04:29.981Z,97155.53
2023-02-25T23:07:02.686Z,97167.69
2023-02-25T23:09:32.805Z,97164.22
2023-02-25T23:12:02.908Z,97170.34
2023-02-25T23:14:35.105Z,97164.13
2023-02-25T23:17:05.559Z,97172.72
2023-02-25T23:19:35.676Z,97172.31
2023-02-25T23:22:09.743Z,97165.72
2023-02-25T23:24:39.921Z,97170.13
2023-02-25T23:27:10.002Z,97175.59
2023-02-25T23:29:40.124Z,97173.84
2023-02-25T23:32:10.768Z,97169.31
2023-02-25T23:34:41.084Z,97183.38
2023-02-25T23:37:15.255Z,97180.69
2023-02-25T23:39:46.155Z,97189.28
2023-02-25T23:42:16.251Z,97192.22
2023-02-25T23:44:46.330Z,97186.72
2023-02-25T23:47:17.596Z,97196.06
2023-02-25T23:49:47.877Z,97189.91
2023-02-25T23:52:20.630Z,97188.31
2023-02-25T23:54:50.729Z,97190.63
2023-02-25T23:57:20.910Z,97197.25
2023-02-25T23:59:51.068Z,97197.66
